createdAt,value
2022-08-27T00:00:24.725Z,8.20
2022-08-27T00:05:46.932Z,7.10
2022-08-27T00:15:57.569Z,8.32
2022-08-27T00:21:06.991Z,7.88
2022-08-27T00:26:12.356Z,7.40
2022-08-27T00:31:16.938Z,7.22
2022-08-27T00:36:24.364Z,6.95
2022-08-27T00:41:28.726Z,7.10
2022-08-27T00:46:39.635Z,6.05
2022-08-27T00:51:57.699Z,7.40
2022-08-27T00:57:04.311Z,5.85
2022-08-27T01:02:21.413Z,5.68
2022-08-27T01:07:31.955Z,6.10
2022-08-27T01:12:38.235Z,6.07
2022-08-27T01:17:45.075Z,6.82
2022-08-27T01:22:59.382Z,7.13
2022-08-27T01:28:07.588Z,6.10
2022-08-27T01:33:15.564Z,6.35
2022-08-27T01:38:30.887Z,6.32
2022-08-27T01:43:37.424Z,6.53
2022-08-27T01:48:41.949Z,6.85
2022-08-27T01:53:48.101Z,6.55
2022-08-27T01:58:54.826Z,7.00
2022-08-27T02:03:59.146Z,7.00
2022-08-27T02:09:04.450Z,7.07
2022-08-27T02:14:12.881Z,6.97
2022-08-27T02:19:19.210Z,6.25
2022-08-27T02:24:23.897Z,7.00
2022-08-27T02:29:30.544Z,6.57
2022-08-27T02:34:35.304Z,5.90
2022-08-27T02:39:43.135Z,6.40
2022-08-27T02:44:52.090Z,7.10
2022-08-27T02:49:56.789Z,6.63
2022-08-27T02:55:01.518Z,6.68
2022-08-27T03:00:12.805Z,7.20
2022-08-27T03:05:18.142Z,7.45
2022-08-27T03:10:23.901Z,7.45
2022-08-27T03:15:30.199Z,7.00
2022-08-27T03:20:35.381Z,7.82
2022-08-27T03:25:40.575Z,7.75
2022-08-27T03:30:52.143Z,7.75
2022-08-27T03:35:56.984Z,8.23
2022-08-27T03:41:03.375Z,7.63
2022-08-27T03:46:10.667Z,7.65
2022-08-27T03:51:17.824Z,7.25
2022-08-27T03:56:22.173Z,7.40
2022-08-27T04:01:29.597Z,7.55
2022-08-27T04:06:36.537Z,7.53
2022-08-27T04:11:41.207Z,7.05
2022-08-27T04:16:48.775Z,7.32
2022-08-27T04:22:02.374Z,7.15
2022-08-27T04:27:08.511Z,6.85
2022-08-27T04:32:15.222Z,6.07
2022-08-27T04:37:23.333Z,6.57
2022-08-27T04:42:28.252Z,7.18
2022-08-27T04:47:34.769Z,6.35
2022-08-27T04:52:40.799Z,6.63
2022-08-27T04:57:46.281Z,6.95
2022-08-27T05:02:52.614Z,7.57
2022-08-27T05:07:57.147Z,6.53
2022-08-27T05:13:01.576Z,8.05
2022-08-27T05:18:10.135Z,8.07
2022-08-27T05:23:15.295Z,8.05
2022-08-27T05:28:22.554Z,8.18
2022-08-27T05:33:34.774Z,8.75
2022-08-27T05:38:38.935Z,8.10
2022-08-27T05:43:49.823Z,6.90
2022-08-27T05:49:00.414Z,7.07
2022-08-27T05:54:08.919Z,6.67
2022-08-27T05:59:30.918Z,6.53
2022-08-27T06:04:40.973Z,6.88
2022-08-27T06:09:45.598Z,6.80
2022-08-27T06:14:49.848Z,6.32
2022-08-27T06:19:57.610Z,6.80
2022-08-27T06:25:02.539Z,7.47
2022-08-27T06:30:08.811Z,6.53
2022-08-27T06:35:15.361Z,6.57
2022-08-27T06:40:19.665Z,7.50
2022-08-27T06:45:24.187Z,5.97
2022-08-27T06:50:31.240Z,6.45
2022-08-27T06:55:44.053Z,5.57
2022-08-27T07:00:49.081Z,5.75
2022-08-27T07:05:55.841Z,5.38
2022-08-27T07:11:00.933Z,5.90
2022-08-27T07:16:07.977Z,5.65
2022-08-27T07:21:14.578Z,5.22
2022-08-27T07:26:19.652Z,5.60
2022-08-27T07:31:25.632Z,5.78
2022-08-27T07:36:31.993Z,5.80
2022-08-27T07:41:57.773Z,6.10
2022-08-27T07:47:02.655Z,6.00
2022-08-27T07:52:08.901Z,6.40
2022-08-27T07:57:14.114Z,5.97
2022-08-27T08:02:18.436Z,5.68
2022-08-27T08:07:26.375Z,6.25
2022-08-27T08:12:32.220Z,6.40
2022-08-27T08:17:37.124Z,6.70
2022-08-27T08:22:43.166Z,6.57
2022-08-27T08:27:48.956Z,6.43
2022-08-27T08:32:53.537Z,7.55
2022-08-27T08:37:59.756Z,6.88
2022-08-27T08:43:08.281Z,7.82
2022-08-27T08:48:16.873Z,7.38
2022-08-27T08:53:35.011Z,7.35
2022-08-27T08:58:47.621Z,7.80
2022-08-27T09:03:57.114Z,8.05
2022-08-27T09:09:09.862Z,8.60
2022-08-27T09:14:26.205Z,7.65
2022-08-27T09:19:31.167Z,8.50
2022-08-27T09:24:49.312Z,9.23
2022-08-27T09:29:57.094Z,8.40
2022-08-27T09:35:05.159Z,7.70
2022-08-27T09:40:23.039Z,8.20
2022-08-27T09:45:31.168Z,9.27
2022-08-27T09:50:43.546Z,8.65
2022-08-27T09:55:56.013Z,8.32
2022-08-27T10:01:04.701Z,9.10
2022-08-27T10:06:11.548Z,9.75
2022-08-27T10:11:23.875Z,9.40
2022-08-27T10:16:53.316Z,10.40
2022-08-27T10:22:07.572Z,10.05
2022-08-27T10:27:25.094Z,9.60
2022-08-27T10:32:46.859Z,8.77
2022-08-27T10:38:12.111Z,7.70
2022-08-27T10:43:44.376Z,7.00
2022-08-27T10:48:58.714Z,7.70
2022-08-27T10:54:10.331Z,8.65
2022-08-27T10:59:31.409Z,5.88
2022-08-27T11:04:41.451Z,5.10
2022-08-27T11:09:56.973Z,5.03
2022-08-27T11:15:12.281Z,5.10
2022-08-27T11:20:23.197Z,5.20
2022-08-27T11:25:47.024Z,5.40
2022-08-27T11:31:03.451Z,5.47
2022-08-27T11:36:39.727Z,7.60
2022-08-27T11:41:56.307Z,5.95
2022-08-27T11:47:15.176Z,5.95
2022-08-27T11:57:33.800Z,4.40
2022-08-27T12:02:39.871Z,3.88
2022-08-27T12:07:53.515Z,3.70
2022-08-27T12:13:13.790Z,4.50
2022-08-27T12:18:50.150Z,3.97
2022-08-27T12:24:22.862Z,4.20
2022-08-27T12:29:31.874Z,4.38
2022-08-27T12:34:45.867Z,3.90
2022-08-27T12:39:54.994Z,4.50
2022-08-27T12:45:01.582Z,3.60
2022-08-27T12:50:08.930Z,3.55
2022-08-27T12:55:24.473Z,4.20
2022-08-27T13:00:36.478Z,4.30
2022-08-27T13:05:47.687Z,4.55
2022-08-27T13:10:52.871Z,5.65
2022-08-27T13:16:00.864Z,5.10
2022-08-27T13:21:14.017Z,4.20
2022-08-27T13:26:24.136Z,4.75
2022-08-27T13:31:30.024Z,3.95
2022-08-27T13:36:50.020Z,4.05
2022-08-27T13:41:55.742Z,4.00
2022-08-27T13:47:04.496Z,5.00
2022-08-27T13:52:22.857Z,4.22
2022-08-27T13:57:31.796Z,4.53
2022-08-27T14:02:36.644Z,4.70
2022-08-27T14:07:47.897Z,4.65
2022-08-27T14:12:58.823Z,4.68
2022-08-27T14:18:05.319Z,4.28
2022-08-27T14:23:11.785Z,3.75
2022-08-27T14:28:16.375Z,3.88
2022-08-27T14:33:21.718Z,5.00
2022-08-27T14:38:32.091Z,3.53
2022-08-27T14:43:37.087Z,3.30
2022-08-27T14:48:50.514Z,3.95
2022-08-27T14:53:59.408Z,3.25
2022-08-27T14:59:04.551Z,4.15
2022-08-27T15:04:10.267Z,4.15
2022-08-27T15:09:16.121Z,3.72
2022-08-27T15:14:26.042Z,4.15
2022-08-27T15:19:31.347Z,4.10
2022-08-27T15:24:47.607Z,3.72
2022-08-27T15:29:53.086Z,4.28
2022-08-27T15:34:58.776Z,3.40
2022-08-27T15:40:06.663Z,3.80
2022-08-27T15:45:14.495Z,5.03
2022-08-27T15:50:19.109Z,4.70
2022-08-27T15:55:31.074Z,3.65
2022-08-27T16:00:36.772Z,4.35
2022-08-27T16:05:44.409Z,4.28
2022-08-27T16:10:50.942Z,4.15
2022-08-27T16:15:56.539Z,4.97
2022-08-27T16:21:03.592Z,4.00
2022-08-27T16:26:09.891Z,4.38
2022-08-27T16:31:15.368Z,4.60
2022-08-27T16:36:20.108Z,4.50
2022-08-27T16:41:26.891Z,4.97
2022-08-27T16:46:31.274Z,5.00
2022-08-27T16:51:38.148Z,3.90
2022-08-27T16:56:46.332Z,4.50
2022-08-27T17:01:54.187Z,5.37
2022-08-27T17:06:59.257Z,4.95
2022-08-27T17:12:05.489Z,5.40
2022-08-27T17:17:10.659Z,5.43
2022-08-27T17:22:15.765Z,5.72
2022-08-27T17:27:22.388Z,5.45
2022-08-27T17:32:27.874Z,5.22
2022-08-27T17:37:32.540Z,5.47
2022-08-27T17:42:39.616Z,5.30
2022-08-27T17:47:44.692Z,6.35
2022-08-27T17:52:49.155Z,6.55
2022-08-27T17:57:54.967Z,6.85
2022-08-27T18:02:59.368Z,6.78
2022-08-27T18:08:03.812Z,6.80
2022-08-27T18:13:10.825Z,7.40
2022-08-27T18:18:16.338Z,8.43
2022-08-27T18:23:22.769Z,10.00
2022-08-27T18:28:29.089Z,10.10
2022-08-27T18:33:33.789Z,9.18
2022-08-27T18:38:38.164Z,9.20
2022-08-27T18:43:44.150Z,8.57
2022-08-27T18:48:48.681Z,8.50
2022-08-27T18:53:54.161Z,7.38
2022-08-27T18:59:00.679Z,7.90
2022-08-27T19:04:06.221Z,6.90
2022-08-27T19:09:10.782Z,7.35
2022-08-27T19:14:17.911Z,8.07
2022-08-27T19:19:22.407Z,7.82
2022-08-27T19:24:28.199Z,8.18
2022-08-27T19:29:34.384Z,9.68
2022-08-27T19:34:38.720Z,8.45
2022-08-27T19:39:44.257Z,9.70
2022-08-27T19:44:49.995Z,9.75
2022-08-27T19:49:55.589Z,9.57
2022-08-27T19:55:15.287Z,9.23
2022-08-27T20:00:25.055Z,8.48
2022-08-27T20:05:32.839Z,10.73
2022-08-27T20:10:39.278Z,10.40
2022-08-27T20:15:46.388Z,9.93
2022-08-27T20:20:52.573Z,9.83
2022-08-27T20:26:01.234Z,10.48
2022-08-27T20:31:07.844Z,8.93
2022-08-27T20:36:14.804Z,10.63
2022-08-27T20:41:19.625Z,10.73
2022-08-27T20:46:28.616Z,9.98
2022-08-27T20:52:02.098Z,10.05
2022-08-27T20:56:58.905Z,9.98
2022-08-27T21:02:08.219Z,8.70
2022-08-27T21:07:13.528Z,9.48
2022-08-27T21:12:22.770Z,8.40
2022-08-27T21:22:34.868Z,9.05
2022-08-27T21:27:39.888Z,9.23
2022-08-27T21:32:46.480Z,8.30
2022-08-27T21:37:51.542Z,10.57
2022-08-27T21:42:57.680Z,9.40
2022-08-27T21:48:04.421Z,9.05
2022-08-27T21:53:09.117Z,8.48
2022-08-27T21:58:15.061Z,8.60
2022-08-27T22:03:22.918Z,8.38
2022-08-27T22:08:28.146Z,7.70
2022-08-27T22:13:33.122Z,8.15
2022-08-27T22:18:39.340Z,8.13
2022-08-27T22:23:44.997Z,8.90
2022-08-27T22:28:49.659Z,8.40
2022-08-27T22:33:55.958Z,8.43
2022-08-27T22:39:03.719Z,8.63
2022-08-27T22:44:08.823Z,8.65
2022-08-27T22:49:15.595Z,8.38
2022-08-27T22:54:20.849Z,9.23
2022-08-27T22:59:25.286Z,8.32
2022-08-27T23:04:53.672Z,9.30
2022-08-27T23:09:56.207Z,8.57
2022-08-27T23:15:00.941Z,8.30
2022-08-27T23:20:10.711Z,7.43
2022-08-27T23:30:37.707Z,8.32
2022-08-27T23:35:48.418Z,8.85
2022-08-27T23:40:54.162Z,8.40
2022-08-27T23:45:59.393Z,9.00
2022-08-27T23:51:05.268Z,9.02
2022-08-27T23:56:10.210Z,9.50
